Time;durP1;ratioP1;P1;durP2;ratioP2;P2;SDS_P1;SDS_P2;PMS_P1;PMS_P2;Temp;Humidity;BMP_temperature;BMP_pressure;BME280_temperature;BME280_humidity;BME280_pressure;Samples;Min_cycle;Max_cycle;Signal;HPM_P1;HPM_P2
2022/04/03 00:02:01;;;;;;;4.30;3.08;;;;;;;;;;5073625;28;20090;-29
2022/04/03 00:04:27;;;;;;;4.25;2.92;;;;;;;;;;5074037;28;20044;-27
2022/04/03 00:06:54;;;;;;;3.30;3.00;;;;;;;;;;5073755;28;20048;-27
2022/04/03 00:09:20;;;;;;;4.63;3.42;;;;;;;;;;5073592;28;20043;-29
2022/04/03 00:11:46;;;;;;;4.07;3.67;;;;;;;;;;5073718;28;20041;-29
2022/04/03 00:14:12;;;;;;;5.65;3.67;;;;;;;;;;5073588;28;20040;-27
2022/04/03 00:16:39;;;;;;;3.72;3.38;;;;;;;;;;5073382;28;20033;-29
2022/04/03 00:19:05;;;;;;;4.03;3.53;;;;;;;;;;5073445;28;20056;-27
2022/04/03 00:21:31;;;;;;;6.25;3.92;;;;;;;;;;5073209;28;20048;-28
2022/04/03 00:23:57;;;;;;;5.63;3.70;;;;;;;;;;5073352;28;20048;-29
2022/04/03 00:26:23;;;;;;;5.07;3.35;;;;;;;;;;5073619;28;20131;-29
2022/04/03 00:28:49;;;;;;;5.72;2.85;;;;;;;;;;5072971;28;20080;-28
2022/04/03 00:31:15;;;;;;;4.32;3.38;;;;;;;;;;5055584;28;20082;-27
2022/04/03 00:33:43;;;;;;;4.03;2.95;;;;;;;;;;5072866;28;20087;-29
2022/04/03 00:36:09;;;;;;;4.68;3.25;;;;;;;;;;5073666;28;20063;-28
2022/04/03 00:38:35;;;;;;;4.80;3.30;;;;;;;;;;5072951;28;20037;-28
2022/04/03 00:41:02;;;;;;;4.88;3.58;;;;;;;;;;5072831;28;20490;-28
2022/04/03 00:43:28;;;;;;;5.28;3.78;;;;;;;;;;5073160;28;20055;-30
2022/04/03 00:45:55;;;;;;;6.68;3.67;;;;;;;;;;5073389;28;20474;-27
2022/04/03 00:48:22;;;;;;;6.78;3.30;;;;;;;;;;5073263;28;20040;-29
2022/04/03 00:50:48;;;;;;;5.07;3.28;;;;;;;;;;5073147;28;20278;-27
2022/04/03 00:53:14;;;;;;;5.72;3.15;;;;;;;;;;5073139;28;20094;-27
2022/04/03 00:55:41;;;;;;;4.35;3.08;;;;;;;;;;5073509;28;20486;-25
2022/04/03 00:58:07;;;;;;;3.88;3.15;;;;;;;;;;5073192;28;20044;-28
2022/04/03 01:00:33;;;;;;;6.55;3.55;;;;;;;;;;5072623;28;20118;-31
2022/04/03 01:03:01;;;;;;;4.30;3.45;;;;;;;;;;5072369;28;20498;-30
2022/04/03 01:05:27;;;;;;;4.43;3.47;;;;;;;;;;5072556;28;20117;-30
2022/04/03 01:07:53;;;;;;;6.32;3.78;;;;;;;;;;5065432;28;20045;-31
2022/04/03 01:10:19;;;;;;;5.57;3.60;;;;;;;;;;5072542;28;20040;-29
2022/04/03 01:12:46;;;;;;;4.55;3.63;;;;;;;;;;5072306;28;20045;-30
2022/04/03 01:15:15;;;;;;;4.00;3.22;;;;;;;;;;5072609;28;20032;-31
2022/04/03 01:17:42;;;;;;;5.55;3.58;;;;;;;;;;5072335;28;20482;-30
2022/04/03 01:20:08;;;;;;;4.30;3.20;;;;;;;;;;5072238;28;20040;-28
2022/04/03 01:22:35;;;;;;;4.70;3.50;;;;;;;;;;5071770;28;20123;-32
2022/04/03 01:25:01;;;;;;;5.63;3.15;;;;;;;;;;5072065;28;20040;-29
2022/04/03 01:27:27;;;;;;;5.18;3.17;;;;;;;;;;5072137;28;20047;-32
2022/04/03 01:29:53;;;;;;;3.78;3.35;;;;;;;;;;5072216;28;20128;-29
2022/04/03 01:32:20;;;;;;;4.63;3.10;;;;;;;;;;5071397;28;20040;-30
2022/04/03 01:34:46;;;;;;;5.85;3.33;;;;;;;;;;5072168;28;20521;-25
2022/04/03 01:37:12;;;;;;;5.03;3.72;;;;;;;;;;5071500;28;20040;-26
2022/04/03 01:39:38;;;;;;;3.85;3.17;;;;;;;;;;5072170;28;20387;-25
2022/04/03 01:42:04;;;;;;;3.97;3.38;;;;;;;;;;5072469;28;20048;-25
2022/04/03 01:44:30;;;;;;;3.38;2.78;;;;;;;;;;5072389;28;20040;-24
2022/04/03 01:46:56;;;;;;;3.58;3.28;;;;;;;;;;5072374;28;20501;-25
2022/04/03 01:49:22;;;;;;;5.43;3.47;;;;;;;;;;5071900;28;20044;-25
2022/04/03 01:51:48;;;;;;;4.07;2.80;;;;;;;;;;5072323;28;20112;-24
2022/04/03 01:54:14;;;;;;;3.78;2.80;;;;;;;;;;5072127;28;20524;-26
2022/04/03 01:56:40;;;;;;;3.50;3.10;;;;;;;;;;5071842;28;20040;-26
2022/04/03 01:59:06;;;;;;;4.75;3.40;;;;;;;;;;5071845;28;20051;-24
2022/04/03 02:01:34;;;;;;;3.75;3.20;;;;;;;;;;5072039;28;20051;-25
2022/04/03 02:04:00;;;;;;;7.95;3.50;;;;;;;;;;5071820;28;20040;-26
2022/04/03 02:06:27;;;;;;;3.13;2.83;;;;;;;;;;5071931;28;20040;-24
2022/04/03 02:08:54;;;;;;;5.38;3.10;;;;;;;;;;5071544;28;20048;-25
2022/04/03 02:11:20;;;;;;;3.83;2.72;;;;;;;;;;5071887;28;20055;-25
2022/04/03 02:13:46;;;;;;;5.75;3.25;;;;;;;;;;5071773;28;20044;-25
2022/04/03 02:16:12;;;;;;;4.93;3.20;;;;;;;;;;5071826;28;20093;-25
2022/04/03 02:18:38;;;;;;;3.35;3.00;;;;;;;;;;5071688;28;20127;-25
2022/04/03 02:21:05;;;;;;;5.47;3.40;;;;;;;;;;5071661;28;20041;-25
2022/04/03 02:23:31;;;;;;;4.18;3.25;;;;;;;;;;5071703;28;20090;-25
2022/04/03 02:25:57;;;;;;;3.75;3.17;;;;;;;;;;5071617;28;20047;-25
2022/04/03 02:28:23;;;;;;;3.38;2.80;;;;;;;;;;5071737;28;20266;-25
2022/04/03 02:30:49;;;;;;;3.65;2.70;;;;;;;;;;5071476;28;20067;-25
2022/04/03 02:33:15;;;;;;;2.92;2.72;;;;;;;;;;5071372;28;20036;-25
2022/04/03 02:35:42;;;;;;;3.50;2.92;;;;;;;;;;5071486;28;20064;-26
2022/04/03 02:38:08;;;;;;;3.88;3.30;;;;;;;;;;5071133;28;20037;-25
2022/04/03 02:40:34;;;;;;;4.38;3.20;;;;;;;;;;5053222;28;20048;-25
2022/04/03 02:43:00;;;;;;;3.65;2.85;;;;;;;;;;5071772;28;20064;-24
2022/04/03 02:45:26;;;;;;;6.60;3.00;;;;;;;;;;5071785;28;20378;-25
2022/04/03 02:47:53;;;;;;;4.15;3.40;;;;;;;;;;5071159;28;20040;-26
2022/04/03 02:50:26;;;;;;;5.93;3.45;;;;;;;;;;5070709;28;20123;-25
2022/04/03 02:52:52;;;;;;;4.95;3.53;;;;;;;;;;5071336;28;20538;-24
2022/04/03 02:55:19;;;;;;;3.25;2.95;;;;;;;;;;5071220;28;20379;-26
2022/04/03 02:57:45;;;;;;;4.78;3.22;;;;;;;;;;5070993;28;20093;-25
2022/04/03 03:00:15;;;;;;;6.68;4.00;;;;;;;;;;5071207;28;20509;-25
2022/04/03 03:02:41;;;;;;;4.45;3.63;;;;;;;;;;5071122;28;20158;-24
2022/04/03 03:05:08;;;;;;;4.45;3.10;;;;;;;;;;5071279;28;20119;-27
2022/04/03 03:07:41;;;;;;;5.18;3.90;;;;;;;;;;5071509;28;20048;-25
2022/04/03 03:10:08;;;;;;;5.63;3.50;;;;;;;;;;5071458;28;20391;-24
2022/04/03 03:12:34;;;;;;;3.70;3.40;;;;;;;;;;5071364;28;20032;-25
2022/04/03 03:15:00;;;;;;;5.13;3.60;;;;;;;;;;5071064;28;20090;-25
2022/04/03 03:17:27;;;;;;;4.80;3.17;;;;;;;;;;5071072;28;20037;-25
2022/04/03 03:19:53;;;;;;;4.25;3.42;;;;;;;;;;5052858;28;20060;-24
2022/04/03 03:22:19;;;;;;;4.93;3.42;;;;;;;;;;5071035;28;20434;-25
2022/04/03 03:24:46;;;;;;;5.40;3.75;;;;;;;;;;5071314;28;20040;-25
2022/04/03 03:27:12;;;;;;;5.25;4.10;;;;;;;;;;5071083;28;20181;-25
2022/04/03 03:29:38;;;;;;;5.72;3.58;;;;;;;;;;5070556;28;20105;-25
2022/04/03 03:32:04;;;;;;;6.22;4.32;;;;;;;;;;5071014;28;20123;-25
2022/04/03 03:34:30;;;;;;;5.80;3.88;;;;;;;;;;5071418;28;20078;-25
2022/04/03 03:36:57;;;;;;;4.65;3.80;;;;;;;;;;5071109;28;20398;-24
2022/04/03 03:39:24;;;;;;;7.72;3.85;;;;;;;;;;5070624;28;20064;-25
2022/04/03 03:41:50;;;;;;;4.38;3.60;;;;;;;;;;5070749;28;20444;-24
2022/04/03 03:44:17;;;;;;;6.28;4.10;;;;;;;;;;5070637;28;20036;-24
2022/04/03 03:46:43;;;;;;;3.90;3.47;;;;;;;;;;5070751;28;20534;-24
2022/04/03 03:49:09;;;;;;;4.50;4.10;;;;;;;;;;5070686;28;20417;-25
2022/04/03 03:51:36;;;;;;;6.78;4.00;;;;;;;;;;5070743;28;20115;-24
2022/04/03 03:54:02;;;;;;;5.50;3.92;;;;;;;;;;5070548;28;20119;-25
2022/04/03 03:56:28;;;;;;;5.20;3.85;;;;;;;;;;5071052;28;20067;-25
2022/04/03 03:58:55;;;;;;;6.60;3.83;;;;;;;;;;5070802;28;20405;-24
2022/04/03 04:01:21;;;;;;;5.55;4.10;;;;;;;;;;5073910;28;20548;-25
2022/04/03 04:03:47;;;;;;;4.35;3.95;;;;;;;;;;5074852;28;20482;-25
2022/04/03 04:06:13;;;;;;;6.63;4.60;;;;;;;;;;5074281;28;20044;-25
2022/04/03 04:08:39;;;;;;;12.75;4.63;;;;;;;;;;5074437;28;20036;-26
2022/04/03 04:11:05;;;;;;;5.75;4.53;;;;;;;;;;5074024;28;20041;-25
2022/04/03 04:13:32;;;;;;;6.30;4.40;;;;;;;;;;5073960;28;20032;-25
2022/04/03 04:15:58;;;;;;;5.30;3.92;;;;;;;;;;5074070;28;20051;-24
2022/04/03 04:18:24;;;;;;;4.95;4.40;;;;;;;;;;5073859;28;20072;-25
2022/04/03 04:20:51;;;;;;;4.75;3.95;;;;;;;;;;5074085;28;20068;-26
2022/04/03 04:23:21;;;;;;;3.70;3.40;;;;;;;;;;5074030;28;20402;-25
2022/04/03 04:25:47;;;;;;;4.55;3.85;;;;;;;;;;5073911;28;20127;-25
2022/04/03 04:28:13;;;;;;;4.53;3.53;;;;;;;;;;5074481;28;20048;-25
2022/04/03 04:30:40;;;;;;;4.95;3.78;;;;;;;;;;5074017;28;20037;-25
2022/04/03 04:33:09;;;;;;;8.93;4.22;;;;;;;;;;5073942;28;20036;-25
2022/04/03 04:35:35;;;;;;;4.63;4.00;;;;;;;;;;5073754;28;20039;-25
2022/04/03 04:38:02;;;;;;;7.38;4.28;;;;;;;;;;5073688;28;20044;-26
2022/04/03 04:40:28;;;;;;;4.50;4.05;;;;;;;;;;5073788;28;20120;-26
2022/04/03 04:42:55;;;;;;;4.88;3.88;;;;;;;;;;5073504;28;20098;-25
2022/04/03 04:45:22;;;;;;;3.92;3.60;;;;;;;;;;5073570;28;20462;-25
2022/04/03 04:47:48;;;;;;;4.93;4.35;;;;;;;;;;5073846;28;20493;-26
2022/04/03 04:50:15;;;;;;;5.40;4.65;;;;;;;;;;5073422;28;20047;-25
2022/04/03 04:52:41;;;;;;;4.68;4.07;;;;;;;;;;5073072;28;20094;-25
2022/04/03 04:55:08;;;;;;;7.65;4.35;;;;;;;;;;5073243;28;20036;-24
2022/04/03 04:57:34;;;;;;;5.50;3.70;;;;;;;;;;5070271;28;20129;-26
2022/04/03 05:00:01;;;;;;;6.15;4.00;;;;;;;;;;5070444;28;20394;-25
2022/04/03 05:02:27;;;;;;;6.28;4.82;;;;;;;;;;5071424;28;20047;-25
2022/04/03 05:04:53;;;;;;;4.47;3.88;;;;;;;;;;5071549;28;20098;-25
2022/04/03 05:07:19;;;;;;;5.22;4.05;;;;;;;;;;5071437;28;20037;-27
2022/04/03 05:09:46;;;;;;;5.38;4.72;;;;;;;;;;5053491;28;20131;-25
2022/04/03 05:12:13;;;;;;;5.53;3.97;;;;;;;;;;5053372;28;20123;-25
2022/04/03 05:14:40;;;;;;;6.13;4.43;;;;;;;;;;5072983;28;20032;-25
2022/04/03 05:17:06;;;;;;;5.25;4.55;;;;;;;;;;5072884;28;20302;-25
2022/04/03 05:19:32;;;;;;;5.03;4.45;;;;;;;;;;5072491;28;20036;-25
2022/04/03 05:21:59;;;;;;;5.90;4.10;;;;;;;;;;5072580;28;20047;-25
2022/04/03 05:24:25;;;;;;;4.93;4.38;;;;;;;;;;5072753;28;20045;-25
2022/04/03 05:26:51;;;;;;;4.90;4.40;;;;;;;;;;5072818;28;20064;-25
2022/04/03 05:29:17;;;;;;;6.55;3.83;;;;;;;;;;5072537;28;20047;-25
2022/04/03 05:31:44;;;;;;;5.18;4.05;;;;;;;;;;5072758;28;20127;-25
2022/04/03 05:34:10;;;;;;;4.97;4.03;;;;;;;;;;5072517;28;20044;-25
2022/04/03 05:36:36;;;;;;;6.88;4.38;;;;;;;;;;5072365;28;20090;-25
2022/04/03 05:39:06;;;;;;;8.98;5.00;;;;;;;;;;5054396;28;20040;-25
2022/04/03 05:41:35;;;;;;;5.70;4.65;;;;;;;;;;5072204;28;20032;-26
2022/04/03 05:44:02;;;;;;;4.65;4.13;;;;;;;;;;5072324;28;20064;-25
2022/04/03 05:46:28;;;;;;;6.45;4.88;;;;;;;;;;5072304;28;20047;-25
2022/04/03 05:48:54;;;;;;;7.28;4.97;;;;;;;;;;5072094;28;20041;-25
2022/04/03 05:51:20;;;;;;;7.40;4.68;;;;;;;;;;5072328;28;20086;-25
2022/04/03 05:53:46;;;;;;;7.22;4.95;;;;;;;;;;5072261;28;20075;-26
2022/04/03 05:56:12;;;;;;;5.82;4.50;;;;;;;;;;5072104;28;20059;-24
2022/04/03 05:58:38;;;;;;;4.85;4.43;;;;;;;;;;5072063;28;20390;-24
2022/04/03 06:01:04;;;;;;;5.93;4.90;;;;;;;;;;5071842;28;20036;-26
2022/04/03 06:03:31;;;;;;;5.90;5.30;;;;;;;;;;5072103;28;20040;-25
2022/04/03 06:05:57;;;;;;;6.47;4.80;;;;;;;;;;5072058;28;20414;-25
2022/04/03 06:08:23;;;;;;;5.65;5.15;;;;;;;;;;5072061;28;20505;-25
2022/04/03 06:10:49;;;;;;;5.78;5.00;;;;;;;;;;5071740;28;20383;-25
2022/04/03 06:13:15;;;;;;;6.70;5.40;;;;;;;;;;5071613;28;20060;-25
2022/04/03 06:15:43;;;;;;;6.70;5.38;;;;;;;;;;5071922;28;20047;-25
2022/04/03 06:18:13;;;;;;;8.52;5.57;;;;;;;;;;5072007;28;20535;-25
2022/04/03 06:20:39;;;;;;;7.22;6.15;;;;;;;;;;5071795;28;20047;-25
2022/04/03 06:23:12;;;;;;;6.35;5.75;;;;;;;;;;5071654;28;20048;-25
2022/04/03 06:25:38;;;;;;;7.85;5.72;;;;;;;;;;5068956;28;20123;-27
2022/04/03 06:28:04;;;;;;;7.57;6.57;;;;;;;;;;5070416;28;20413;-26
2022/04/03 06:30:30;;;;;;;6.38;5.18;;;;;;;;;;5064608;28;20094;-26
2022/04/03 06:32:56;;;;;;;6.95;5.35;;;;;;;;;;5070630;28;20043;-25
2022/04/03 06:35:23;;;;;;;5.82;5.30;;;;;;;;;;5053381;28;20051;-26
2022/04/03 06:37:49;;;;;;;6.40;4.93;;;;;;;;;;5071439;28;20409;-26
2022/04/03 06:40:16;;;;;;;7.43;6.03;;;;;;;;;;5071727;28;20110;-25
2022/04/03 06:42:43;;;;;;;6.93;5.05;;;;;;;;;;5071129;28;20045;-25
2022/04/03 06:45:09;;;;;;;7.03;5.25;;;;;;;;;;5071652;28;20125;-25
2022/04/03 06:47:36;;;;;;;4.90;4.50;;;;;;;;;;5071258;28;20048;-26
2022/04/03 06:50:03;;;;;;;5.93;5.30;;;;;;;;;;5070819;28;20128;-26
2022/04/03 06:52:29;;;;;;;7.65;5.88;;;;;;;;;;5064485;28;20037;-26
2022/04/03 06:54:55;;;;;;;6.50;4.80;;;;;;;;;;5054983;28;20107;-25
2022/04/03 06:57:21;;;;;;;6.22;5.18;;;;;;;;;;5056861;28;20097;-26
2022/04/03 06:59:47;;;;;;;5.28;4.57;;;;;;;;;;5059298;28;20048;-26
2022/04/03 07:02:13;;;;;;;7.38;4.80;;;;;;;;;;5059111;28;20040;-25
2022/04/03 07:04:39;;;;;;;6.68;4.22;;;;;;;;;;5054540;28;20040;-27
2022/04/03 07:07:05;;;;;;;10.60;4.63;;;;;;;;;;5063309;28;20041;-26
2022/04/03 07:09:32;;;;;;;6.18;4.53;;;;;;;;;;5050632;28;20402;-26
2022/04/03 07:11:58;;;;;;;5.45;4.55;;;;;;;;;;5062537;28;20032;-25
2022/04/03 07:14:24;;;;;;;3.95;3.55;;;;;;;;;;5071249;28;20600;-25
2022/04/03 07:16:50;;;;;;;4.60;3.63;;;;;;;;;;5071714;28;20483;-26
2022/04/03 07:19:16;;;;;;;5.25;3.60;;;;;;;;;;5071576;28;20048;-25
2022/04/03 07:21:42;;;;;;;4.15;3.13;;;;;;;;;;5071318;28;20094;-26
2022/04/03 07:24:08;;;;;;;6.53;3.20;;;;;;;;;;5071145;28;20041;-25
2022/04/03 07:26:34;;;;;;;6.45;3.20;;;;;;;;;;5071168;28;20044;-25
2022/04/03 07:29:00;;;;;;;3.80;3.00;;;;;;;;;;5070668;28;20044;-27
2022/04/03 07:31:28;;;;;;;3.20;2.90;;;;;;;;;;5070861;28;20124;-26
2022/04/03 07:33:55;;;;;;;5.45;2.95;;;;;;;;;;5071237;28;20436;-25
2022/04/03 07:36:21;;;;;;;4.57;3.30;;;;;;;;;;5074132;28;20041;-26
2022/04/03 07:38:47;;;;;;;3.60;2.75;;;;;;;;;;5074334;28;20128;-25
2022/04/03 07:41:14;;;;;;;3.53;2.60;;;;;;;;;;5074736;28;20127;-26
2022/04/03 07:43:40;;;;;;;3.30;2.65;;;;;;;;;;5074880;28;20041;-26
2022/04/03 07:46:07;;;;;;;2.83;2.55;;;;;;;;;;5074673;28;20040;-25
2022/04/03 07:48:33;;;;;;;2.90;2.63;;;;;;;;;;5074352;28;20093;-26
2022/04/03 07:50:59;;;;;;;4.43;2.45;;;;;;;;;;5074175;28;20048;-25
2022/04/03 07:53:25;;;;;;;4.28;2.28;;;;;;;;;;5075096;28;20040;-25
2022/04/03 07:55:51;;;;;;;6.22;2.83;;;;;;;;;;5074789;28;20064;-25
2022/04/03 07:58:17;;;;;;;3.38;2.40;;;;;;;;;;5074725;28;20036;-26
2022/04/03 08:00:43;;;;;;;3.47;2.35;;;;;;;;;;5072931;28;20040;-26
2022/04/03 08:03:10;;;;;;;3.28;2.55;;;;;;;;;;5064291;28;20717;-31
2022/04/03 08:05:36;;;;;;;2.58;2.35;;;;;;;;;;5054455;28;20091;-31
2022/04/03 08:08:02;;;;;;;4.38;2.10;;;;;;;;;;5054329;28;20086;-33
2022/04/03 08:10:28;;;;;;;3.33;2.00;;;;;;;;;;5060386;28;20033;-33
2022/04/03 08:12:54;;;;;;;4.43;1.77;;;;;;;;;;5056255;28;20410;-34
2022/04/03 08:15:21;;;;;;;4.07;2.10;;;;;;;;;;5063264;28;20028;-32
2022/04/03 08:17:47;;;;;;;5.68;1.60;;;;;;;;;;5071286;28;20044;-32
2022/04/03 08:20:17;;;;;;;2.78;1.60;;;;;;;;;;5052114;28;20045;-32
2022/04/03 08:22:43;;;;;;;3.92;1.52;;;;;;;;;;5061326;28;20520;-35
2022/04/03 08:25:10;;;;;;;3.47;1.60;;;;;;;;;;5035006;28;20552;-31
2022/04/03 08:27:47;;;;;;;4.35;1.88;;;;;;;;;;5053883;28;20094;-32
2022/04/03 08:30:14;;;;;;;3.83;1.50;;;;;;;;;;5058509;28;20094;-34
2022/04/03 08:32:40;;;;;;;2.00;1.30;;;;;;;;;;5047857;28;20430;-30
2022/04/03 08:35:07;;;;;;;5.70;1.70;;;;;;;;;;5047863;28;20044;-32
2022/04/03 08:37:33;;;;;;;4.35;1.60;;;;;;;;;;5054835;28;20052;-33
2022/04/03 08:39:59;;;;;;;2.53;1.30;;;;;;;;;;5053223;28;20048;-34
2022/04/03 08:42:25;;;;;;;5.22;1.35;;;;;;;;;;5066256;28;20525;-32
2022/04/03 08:44:51;;;;;;;4.60;1.38;;;;;;;;;;5059457;28;20079;-31
2022/04/03 08:47:17;;;;;;;3.90;1.50;;;;;;;;;;5063097;28;20122;-33
2022/04/03 08:49:45;;;;;;;2.70;1.30;;;;;;;;;;5070720;28;20053;-34
2022/04/03 08:52:12;;;;;;;3.55;1.77;;;;;;;;;;5071812;28;20055;-33
2022/04/03 08:54:39;;;;;;;3.33;1.23;;;;;;;;;;5055536;28;20130;-33
2022/04/03 08:57:05;;;;;;;2.65;2.05;;;;;;;;;;5064907;28;20066;-33
2022/04/03 08:59:31;;;;;;;3.50;1.73;;;;;;;;;;5061224;28;20052;-33
2022/04/03 09:01:57;;;;;;;5.13;1.85;;;;;;;;;;5054188;28;20052;-32
2022/04/03 09:04:23;;;;;;;2.55;1.65;;;;;;;;;;5067538;28;20044;-31
2022/04/03 09:06:59;;;;;;;3.65;1.50;;;;;;;;;;5052353;28;20055;-34
2022/04/03 09:09:26;;;;;;;2.92;1.35;;;;;;;;;;5052164;28;20103;-33
2022/04/03 09:12:12;;;;;;;4.05;1.40;;;;;;;;;;5051341;28;20120;-31
2022/04/03 09:14:46;;;;;;;3.33;1.30;;;;;;;;;;5059194;28;20079;-32
2022/04/03 09:17:12;;;;;;;5.90;1.92;;;;;;;;;;5058736;28;20043;-36
2022/04/03 09:19:38;;;;;;;1.80;1.10;;;;;;;;;;5055096;28;20094;-31
2022/04/03 09:22:04;;;;;;;3.53;1.08;;;;;;;;;;5060152;28;20049;-32
2022/04/03 09:24:34;;;;;;;2.55;1.20;;;;;;;;;;5054049;28;20046;-33
2022/04/03 09:27:02;;;;;;;1.20;1.10;;;;;;;;;;5063524;28;20048;-35
2022/04/03 09:29:28;;;;;;;1.40;0.90;;;;;;;;;;5062781;28;20044;-30
2022/04/03 09:31:59;;;;;;;3.40;1.10;;;;;;;;;;5056564;28;20041;-30
2022/04/03 09:34:26;;;;;;;1.85;1.00;;;;;;;;;;5057619;28;20513;-36
2022/04/03 09:36:59;;;;;;;4.00;0.90;;;;;;;;;;5054584;28;20033;-31
2022/04/03 09:39:29;;;;;;;4.88;1.02;;;;;;;;;;5048993;28;20090;-33
2022/04/03 09:42:03;;;;;;;2.45;1.10;;;;;;;;;;5050174;28;20040;-35
2022/04/03 09:44:29;;;;;;;;;;;;;;;;;;5053323;28;20072;-33
2022/04/03 09:47:26;;;;;;;2.10;1.00;;;;;;;;;;5050979;28;19971;-31
2022/04/03 09:49:55;;;;;;;1.00;0.90;;;;;;;;;;5046406;28;20056;-30
2022/04/03 09:52:38;;;;;;;2.08;1.00;;;;;;;;;;5067838;28;20044;-34
2022/04/03 09:55:23;;;;;;;1.45;1.00;;;;;;;;;;5069147;28;20044;-32
2022/04/03 09:58:12;;;;;;;2.80;0.93;;;;;;;;;;5066456;28;20040;-35
2022/04/03 10:00:41;;;;;;;2.90;1.02;;;;;;;;;;5066385;28;20047;-32
2022/04/03 10:03:09;;;;;;;2.28;0.90;;;;;;;;;;5067767;28;20052;-32
2022/04/03 10:05:36;;;;;;;1.67;1.10;;;;;;;;;;5069228;28;20086;-31
2022/04/03 10:08:03;;;;;;;2.92;1.20;;;;;;;;;;5044450;28;20246;-34
2022/04/03 10:10:29;;;;;;;1.35;0.80;;;;;;;;;;5061550;28;20083;-31
2022/04/03 10:12:56;;;;;;;1.10;0.70;;;;;;;;;;5039457;28;20573;-31
2022/04/03 10:15:23;;;;;;;2.25;1.05;;;;;;;;;;5059873;28;20394;-31
2022/04/03 10:17:49;;;;;;;2.78;1.02;;;;;;;;;;5055841;28;20041;-35
2022/04/03 10:20:15;;;;;;;2.15;1.00;;;;;;;;;;5064929;28;20036;-31
2022/04/03 10:22:42;;;;;;;3.25;1.25;;;;;;;;;;5058940;28;20041;-32
2022/04/03 10:25:11;;;;;;;2.25;1.20;;;;;;;;;;5064663;28;20040;-33
2022/04/03 10:27:39;;;;;;;2.85;1.10;;;;;;;;;;5071267;28;20041;-32
2022/04/03 10:30:06;;;;;;;2.08;1.17;;;;;;;;;;5066418;28;20032;-34
2022/04/03 10:32:36;;;;;;;2.50;1.00;;;;;;;;;;5065071;28;20032;-31
2022/04/03 10:35:09;;;;;;;2.58;1.33;;;;;;;;;;5051392;28;20037;-31
2022/04/03 10:37:36;;;;;;;;;;;;;;;;;;5034438;28;20124;-27
2022/04/03 10:40:17;;;;;;;1.30;1.10;;;;;;;;;;5052276;28;20326;-27
2022/04/03 10:42:53;;;;;;;1.20;1.00;;;;;;;;;;5051884;28;20127;-26
2022/04/03 10:45:23;;;;;;;2.10;0.85;;;;;;;;;;5051877;28;20041;-27
2022/04/03 10:47:51;;;;;;;3.42;1.17;;;;;;;;;;5051849;28;20045;-26
2022/04/03 10:50:17;;;;;;;2.15;1.10;;;;;;;;;;5051880;28;20090;-26
2022/04/03 10:52:43;;;;;;;2.42;1.02;;;;;;;;;;5051576;28;20049;-27
2022/04/03 10:55:15;;;;;;;1.85;0.88;;;;;;;;;;5033824;28;20041;-26
2022/04/03 10:57:42;;;;;;;3.70;1.00;;;;;;;;;;5052038;28;20412;-27
2022/04/03 11:00:15;;;;;;;3.03;1.00;;;;;;;;;;5052018;28;20047;-28
2022/04/03 11:02:44;;;;;;;2.22;1.20;;;;;;;;;;5033969;28;20118;-26
2022/04/03 11:05:22;;;;;;;1.52;0.80;;;;;;;;;;5051793;28;20048;-28
2022/04/03 11:07:48;;;;;;;1.02;0.73;;;;;;;;;;5051055;28;20045;-27
2022/04/03 11:10:14;;;;;;;2.20;1.05;;;;;;;;;;5050452;28;20048;-29
2022/04/03 11:12:44;;;;;;;3.42;1.10;;;;;;;;;;5051726;28;20044;-28
2022/04/03 11:15:13;;;;;;;0.93;0.77;;;;;;;;;;5051469;28;20183;-27
2022/04/03 11:17:45;;;;;;;1.13;0.80;;;;;;;;;;5051094;28;20040;-26
2022/04/03 11:20:28;;;;;;;1.92;1.00;;;;;;;;;;5051275;28;20390;-27
2022/04/03 11:22:54;;;;;;;1.02;0.90;;;;;;;;;;5051304;28;20422;-27
2022/04/03 11:25:21;;;;;;;1.95;1.20;;;;;;;;;;5051254;28;20045;-27
2022/04/03 11:27:47;;;;;;;1.52;0.70;;;;;;;;;;5051238;28;20056;-27
2022/04/03 11:30:13;;;;;;;2.17;0.93;;;;;;;;;;5050814;28;20114;-27
2022/04/03 11:32:40;;;;;;;1.00;0.70;;;;;;;;;;5051452;28;20041;-28
2022/04/03 11:35:06;;;;;;;1.63;1.10;;;;;;;;;;5051055;28;20463;-27
2022/04/03 11:37:33;;;;;;;3.03;0.93;;;;;;;;;;5051040;28;20489;-28
2022/04/03 11:39:59;;;;;;;0.90;0.60;;;;;;;;;;5051103;28;20045;-29
2022/04/03 11:42:25;;;;;;;1.45;0.90;;;;;;;;;;5051122;28;20404;-27
2022/04/03 11:44:54;;;;;;;1.33;0.90;;;;;;;;;;5051045;28;20086;-27
2022/04/03 11:47:22;;;;;;;1.67;0.90;;;;;;;;;;5050978;28;20037;-27
2022/04/03 11:50:03;;;;;;;1.48;0.80;;;;;;;;;;5050723;28;20119;-28
2022/04/03 11:52:29;;;;;;;2.28;0.60;;;;;;;;;;5050620;28;20040;-28
2022/04/03 11:54:56;;;;;;;1.20;0.75;;;;;;;;;;5050663;28;20040;-28
2022/04/03 11:57:22;;;;;;;2.13;1.10;;;;;;;;;;5050789;28;20398;-28
2022/04/03 11:59:48;;;;;;;1.75;0.93;;;;;;;;;;5050757;28;20045;-27
2022/04/03 12:02:15;;;;;;;1.13;0.80;;;;;;;;;;5050685;28;20055;-28
2022/04/03 12:04:42;;;;;;;1.67;0.77;;;;;;;;;;5050881;28;20052;-27
2022/04/03 12:07:15;;;;;;;2.03;1.00;;;;;;;;;;5051326;28;20091;-27
2022/04/03 12:09:42;;;;;;;0.80;0.70;;;;;;;;;;5051023;28;20053;-27
2022/04/03 12:12:09;;;;;;;2.17;0.80;;;;;;;;;;5050732;28;20076;-27
2022/04/03 12:14:36;;;;;;;4.25;1.17;;;;;;;;;;5050619;28;20044;-27
2022/04/03 12:17:02;;;;;;;2.28;0.77;;;;;;;;;;5050577;28;20111;-26
2022/04/03 12:19:30;;;;;;;1.85;0.95;;;;;;;;;;5050047;28;20041;-28
2022/04/03 12:21:57;;;;;;;0.95;0.80;;;;;;;;;;5052786;28;20391;-27
2022/04/03 12:24:29;;;;;;;3.08;1.20;;;;;;;;;;5053970;28;20127;-28
2022/04/03 12:26:58;;;;;;;3.28;1.00;;;;;;;;;;5053815;28;20047;-27
2022/04/03 12:29:25;;;;;;;1.35;1.05;;;;;;;;;;5053779;28;20091;-28
2022/04/03 12:32:01;;;;;;;1.75;0.73;;;;;;;;;;5053482;28;20033;-26
2022/04/03 12:34:31;;;;;;;0.90;0.90;;;;;;;;;;5053775;28;20445;-27
2022/04/03 12:36:59;;;;;;;2.22;0.80;;;;;;;;;;5053799;28;20124;-26
2022/04/03 12:39:28;;;;;;;0.90;0.70;;;;;;;;;;5053592;28;20072;-28
2022/04/03 12:41:54;;;;;;;0.95;0.80;;;;;;;;;;5063911;28;20142;-30
2022/04/03 12:44:20;;;;;;;1.80;1.00;;;;;;;;;;5060322;28;20041;-27
2022/04/03 12:46:47;;;;;;;2.60;1.05;;;;;;;;;;5053452;28;20049;-26
2022/04/03 12:49:17;;;;;;;3.33;0.93;;;;;;;;;;5059714;28;20366;-28
2022/04/03 12:51:44;;;;;;;1.83;0.90;;;;;;;;;;5067412;28;20037;-26
2022/04/03 12:54:10;;;;;;;2.47;1.60;;;;;;;;;;5062603;28;20037;-26
2022/04/03 12:59:21;;;;;;;1.33;1.08;;;;;;;;;;5053300;28;20040;-26
2022/04/03 13:01:52;;;;;;;3.45;1.30;;;;;;;;;;5053379;28;20044;-26
2022/04/03 13:04:30;;;;;;;2.25;1.10;;;;;;;;;;5053647;28;20248;-27
2022/04/03 13:06:57;;;;;;;1.88;1.25;;;;;;;;;;5047160;28;20406;-25
2022/04/03 13:09:23;;;;;;;2.20;1.20;;;;;;;;;;5071674;28;20501;-27
2022/04/03 13:11:50;;;;;;;2.65;1.33;;;;;;;;;;5054574;28;20491;-26
2022/04/03 13:14:35;;;;;;;1.58;1.48;;;;;;;;;;5072960;28;20474;-26
2022/04/03 13:17:03;;;;;;;1.83;1.10;;;;;;;;;;5053422;28;20067;-26
2022/04/03 13:19:29;;;;;;;1.88;1.42;;;;;;;;;;5052477;28;20124;-26
2022/04/03 13:21:56;;;;;;;1.73;1.10;;;;;;;;;;5052766;28;20037;-27
2022/04/03 13:24:23;;;;;;;1.30;1.10;;;;;;;;;;5053260;28;20044;-26
2022/04/03 13:26:50;;;;;;;1.27;0.95;;;;;;;;;;5065486;28;20119;-27
2022/04/03 13:29:18;;;;;;;2.05;1.00;;;;;;;;;;5067680;28;20367;-27
2022/04/03 13:31:45;;;;;;;1.17;0.80;;;;;;;;;;5065751;28;20040;-28
2022/04/03 13:34:11;;;;;;;1.17;0.50;;;;;;;;;;5052740;28;20080;-30
2022/04/03 13:36:37;;;;;;;1.30;0.90;;;;;;;;;;5057450;28;20451;-33
2022/04/03 13:39:04;;;;;;;1.67;0.70;;;;;;;;;;5058732;28;20422;-31
2022/04/03 13:41:31;;;;;;;1.67;1.30;;;;;;;;;;5056528;28;20032;-29
2022/04/03 13:43:57;;;;;;;0.80;0.80;;;;;;;;;;5063327;28;20101;-29
2022/04/03 13:46:25;;;;;;;2.33;0.95;;;;;;;;;;5040784;28;20037;-30
2022/04/03 13:48:51;;;;;;;3.03;1.00;;;;;;;;;;5051638;28;20507;-29
2022/04/03 13:51:17;;;;;;;2.83;0.85;;;;;;;;;;5067767;28;20440;-31
2022/04/03 13:53:45;;;;;;;1.88;0.90;;;;;;;;;;5071544;28;20119;-29
2022/04/03 13:56:11;;;;;;;1.35;1.00;;;;;;;;;;5061268;28;20041;-30
2022/04/03 13:58:38;;;;;;;1.45;0.90;;;;;;;;;;5051405;28;20083;-29
2022/04/03 14:01:05;;;;;;;0.93;0.63;;;;;;;;;;5062042;28;20532;-30
2022/04/03 14:03:32;;;;;;;0.73;0.73;;;;;;;;;;5033177;28;20120;-30
2022/04/03 14:05:58;;;;;;;1.30;0.60;;;;;;;;;;5051483;28;20051;-32
2022/04/03 14:08:24;;;;;;;0.98;0.80;;;;;;;;;;5033557;28;20502;-34
2022/04/03 14:10:52;;;;;;;1.92;0.82;;;;;;;;;;5050723;28;20130;-32
2022/04/03 14:13:23;;;;;;;1.75;0.77;;;;;;;;;;5019302;28;20040;-32
2022/04/03 14:15:50;;;;;;;2.25;0.65;;;;;;;;;;5051910;28;20040;-30
2022/04/03 14:18:17;;;;;;;2.70;0.70;;;;;;;;;;5041288;28;20037;-30
2022/04/03 14:20:43;;;;;;;1.17;0.80;;;;;;;;;;5067910;28;20581;-32
2022/04/03 14:23:09;;;;;;;2.97;0.70;;;;;;;;;;5070367;28;20443;-27
2022/04/03 14:25:35;;;;;;;1.40;0.88;;;;;;;;;;5053237;28;20037;-27
2022/04/03 14:28:01;;;;;;;1.40;0.75;;;;;;;;;;5051527;28;20570;-29
2022/04/03 14:30:27;;;;;;;0.95;0.88;;;;;;;;;;5051702;28;20048;-27
2022/04/03 14:32:54;;;;;;;1.80;0.80;;;;;;;;;;5059449;28;20056;-27
2022/04/03 14:35:20;;;;;;;1.95;0.80;;;;;;;;;;5071370;28;20036;-27
2022/04/03 14:37:47;;;;;;;1.70;0.80;;;;;;;;;;5071112;28;20064;-27
2022/04/03 14:40:14;;;;;;;1.38;0.80;;;;;;;;;;5071898;28;20049;-26
2022/04/03 14:42:40;;;;;;;2.22;0.70;;;;;;;;;;5072061;28;20111;-26
2022/04/03 14:45:06;;;;;;;2.65;0.95;;;;;;;;;;5071776;28;20055;-26
2022/04/03 14:47:33;;;;;;;1.95;0.60;;;;;;;;;;5059012;28;20094;-26